sensor_id;sensor_type;location;lat;lon;timestamp;P1;durP1;ratioP1;P2;durP2;ratioP2
6043;SDS011;3050;42.660;23.276;2023-08-07T00:00:59;0.75;;;0.70;;
6043;SDS011;3050;42.660;23.276;2023-08-07T00:03:28;0.65;;;0.65;;
6043;SDS011;3050;42.660;23.276;2023-08-07T00:06:00;0.50;;;0.50;;
6043;SDS011;3050;42.660;23.276;2023-08-07T00:08:30;0.50;;;0.50;;
6043;SDS011;3050;42.660;23.276;2023-08-07T00:11:04;0.70;;;0.70;;
6043;SDS011;3050;42.660;23.276;2023-08-07T00:13:34;0.60;;;0.60;;
6043;SDS011;3050;42.660;23.276;2023-08-07T00:16:05;0.60;;;0.60;;
6043;SDS011;3050;42.660;23.276;2023-08-07T00:18:33;1.02;;;1.02;;
6043;SDS011;3050;42.660;23.276;2023-08-07T00:21:03;0.60;;;0.60;;
6043;SDS011;3050;42.660;23.276;2023-08-07T00:23:33;0.75;;;0.75;;
6043;SDS011;3050;42.660;23.276;2023-08-07T00:26:04;0.70;;;0.70;;
6043;SDS011;3050;42.660;23.276;2023-08-07T00:28:33;0.60;;;0.60;;
6043;SDS011;3050;42.660;23.276;2023-08-07T00:31:06;0.50;;;0.50;;
6043;SDS011;3050;42.660;23.276;2023-08-07T00:33:33;0.63;;;0.63;;
6043;SDS011;3050;42.660;23.276;2023-08-07T00:36:06;0.50;;;0.50;;
6043;SDS011;3050;42.660;23.276;2023-08-07T00:38:35;0.70;;;0.70;;
6043;SDS011;3050;42.660;23.276;2023-08-07T00:41:06;0.55;;;0.55;;
6043;SDS011;3050;42.660;23.276;2023-08-07T00:43:35;1.08;;;0.68;;
6043;SDS011;3050;42.660;23.276;2023-08-07T00:46:07;0.70;;;0.70;;
6043;SDS011;3050;42.660;23.276;2023-08-07T00:48:35;0.90;;;0.90;;
6043;SDS011;3050;42.660;23.276;2023-08-07T00:51:07;0.70;;;0.70;;
6043;SDS011;3050;42.660;23.276;2023-08-07T00:53:39;0.50;;;0.50;;
6043;SDS011;3050;42.660;23.276;2023-08-07T00:56:11;0.70;;;0.70;;
6043;SDS011;3050;42.660;23.276;2023-08-07T00:58:40;0.52;;;0.52;;
6043;SDS011;3050;42.660;23.276;2023-08-07T01:01:18;0.52;;;0.52;;
6043;SDS011;3050;42.660;23.276;2023-08-07T01:03:47;0.90;;;0.90;;
6043;SDS011;3050;42.660;23.276;2023-08-07T01:06:17;0.50;;;0.50;;
6043;SDS011;3050;42.660;23.276;2023-08-07T01:08:47;0.70;;;0.70;;
6043;SDS011;3050;42.660;23.276;2023-08-07T01:11:20;0.60;;;0.60;;
6043;SDS011;3050;42.660;23.276;2023-08-07T01:13:50;0.70;;;0.70;;
6043;SDS011;3050;42.660;23.276;2023-08-07T01:16:31;0.60;;;0.60;;
6043;SDS011;3050;42.660;23.276;2023-08-07T01:19:04;4.97;;;0.65;;
6043;SDS011;3050;42.660;23.276;2023-08-07T01:24:09;0.60;;;0.60;;
6043;SDS011;3050;42.660;23.276;2023-08-07T01:29:31;0.50;;;0.50;;
6043;SDS011;3050;42.660;23.276;2023-08-07T01:32:01;0.98;;;0.98;;
6043;SDS011;3050;42.660;23.276;2023-08-07T01:34:38;0.70;;;0.70;;
6043;SDS011;3050;42.660;23.276;2023-08-07T01:37:09;0.60;;;0.60;;
6043;SDS011;3050;42.660;23.276;2023-08-07T01:39:41;0.70;;;0.70;;
6043;SDS011;3050;42.660;23.276;2023-08-07T01:42:11;0.80;;;0.80;;
6043;SDS011;3050;42.660;23.276;2023-08-07T01:44:40;0.82;;;0.82;;
6043;SDS011;3050;42.660;23.276;2023-08-07T01:47:10;0.93;;;0.73;;
6043;SDS011;3050;42.660;23.276;2023-08-07T01:49:39;1.05;;;1.05;;
6043;SDS011;3050;42.660;23.276;2023-08-07T01:52:13;1.10;;;1.10;;
6043;SDS011;3050;42.660;23.276;2023-08-07T01:54:46;0.70;;;0.70;;
6043;SDS011;3050;42.660;23.276;2023-08-07T01:57:15;0.95;;;0.95;;
6043;SDS011;3050;42.660;23.276;2023-08-07T01:59:47;0.77;;;0.77;;
6043;SDS011;3050;42.660;23.276;2023-08-07T02:02:18;1.30;;;0.83;;
6043;SDS011;3050;42.660;23.276;2023-08-07T02:04:48;0.87;;;0.87;;
6043;SDS011;3050;42.660;23.276;2023-08-07T02:07:19;0.77;;;0.77;;
6043;SDS011;3050;42.660;23.276;2023-08-07T02:09:53;0.90;;;0.90;;
6043;SDS011;3050;42.660;23.276;2023-08-07T02:12:21;0.73;;;0.73;;
6043;SDS011;3050;42.660;23.276;2023-08-07T02:14:50;1.70;;;0.90;;
6043;SDS011;3050;42.660;23.276;2023-08-07T02:17:22;0.70;;;0.70;;
6043;SDS011;3050;42.660;23.276;2023-08-07T02:19:53;0.87;;;0.87;;
6043;SDS011;3050;42.660;23.276;2023-08-07T02:22:27;1.23;;;1.13;;
6043;SDS011;3050;42.660;23.276;2023-08-07T02:25:01;0.80;;;0.80;;
6043;SDS011;3050;42.660;23.276;2023-08-07T02:27:36;0.90;;;0.90;;
6043;SDS011;3050;42.660;23.276;2023-08-07T02:30:06;0.80;;;0.80;;
6043;SDS011;3050;42.660;23.276;2023-08-07T02:32:43;0.97;;;0.80;;
6043;SDS011;3050;42.660;23.276;2023-08-07T02:35:22;0.70;;;0.63;;
6043;SDS011;3050;42.660;23.276;2023-08-07T02:37:53;0.80;;;0.80;;
6043;SDS011;3050;42.660;23.276;2023-08-07T02:40:27;0.80;;;0.80;;
6043;SDS011;3050;42.660;23.276;2023-08-07T02:42:57;1.47;;;1.37;;
6043;SDS011;3050;42.660;23.276;2023-08-07T02:45:29;1.00;;;0.93;;
6043;SDS011;3050;42.660;23.276;2023-08-07T02:48:01;0.70;;;0.70;;
6043;SDS011;3050;42.660;23.276;2023-08-07T02:50:35;1.40;;;1.30;;
6043;SDS011;3050;42.660;23.276;2023-08-07T02:53:09;0.73;;;0.73;;
6043;SDS011;3050;42.660;23.276;2023-08-07T02:55:42;1.40;;;1.33;;
6043;SDS011;3050;42.660;23.276;2023-08-07T02:58:10;1.07;;;1.07;;
6043;SDS011;3050;42.660;23.276;2023-08-07T03:00:38;0.90;;;0.90;;
6043;SDS011;3050;42.660;23.276;2023-08-07T03:03:10;1.20;;;1.10;;
6043;SDS011;3050;42.660;23.276;2023-08-07T03:05:40;0.60;;;0.60;;
6043;SDS011;3050;42.660;23.276;2023-08-07T03:08:15;0.70;;;0.70;;
6043;SDS011;3050;42.660;23.276;2023-08-07T03:10:51;1.73;;;0.77;;
6043;SDS011;3050;42.660;23.276;2023-08-07T03:13:20;1.00;;;1.00;;
6043;SDS011;3050;42.660;23.276;2023-08-07T03:16:07;1.00;;;1.00;;
6043;SDS011;3050;42.660;23.276;2023-08-07T03:18:48;1.00;;;1.00;;
6043;SDS011;3050;42.660;23.276;2023-08-07T03:21:19;1.13;;;1.13;;
6043;SDS011;3050;42.660;23.276;2023-08-07T03:23:49;1.30;;;1.23;;
6043;SDS011;3050;42.660;23.276;2023-08-07T03:26:21;1.33;;;1.23;;
6043;SDS011;3050;42.660;23.276;2023-08-07T03:28:49;3.90;;;1.50;;
6043;SDS011;3050;42.660;23.276;2023-08-07T03:31:23;1.40;;;1.40;;
6043;SDS011;3050;42.660;23.276;2023-08-07T03:33:54;0.80;;;0.80;;
6043;SDS011;3050;42.660;23.276;2023-08-07T03:36:24;1.25;;;1.25;;
6043;SDS011;3050;42.660;23.276;2023-08-07T03:38:55;1.67;;;1.58;;
6043;SDS011;3050;42.660;23.276;2023-08-07T03:41:31;1.40;;;1.30;;
6043;SDS011;3050;42.660;23.276;2023-08-07T03:43:59;0.77;;;0.77;;
6043;SDS011;3050;42.660;23.276;2023-08-07T03:46:30;1.27;;;1.27;;
6043;SDS011;3050;42.660;23.276;2023-08-07T03:49:03;1.25;;;1.25;;
6043;SDS011;3050;42.660;23.276;2023-08-07T03:51:31;1.10;;;1.10;;
6043;SDS011;3050;42.660;23.276;2023-08-07T03:54:05;1.20;;;1.20;;
6043;SDS011;3050;42.660;23.276;2023-08-07T03:56:39;1.25;;;1.25;;
6043;SDS011;3050;42.660;23.276;2023-08-07T03:59:07;0.90;;;0.90;;
6043;SDS011;3050;42.660;23.276;2023-08-07T04:01:41;1.08;;;1.08;;
6043;SDS011;3050;42.660;23.276;2023-08-07T04:04:14;2.13;;;1.50;;
6043;SDS011;3050;42.660;23.276;2023-08-07T04:06:44;1.17;;;1.17;;
6043;SDS011;3050;42.660;23.276;2023-08-07T04:09:14;0.95;;;0.95;;
6043;SDS011;3050;42.660;23.276;2023-08-07T04:11:50;1.08;;;1.08;;
6043;SDS011;3050;42.660;23.276;2023-08-07T04:14:19;0.80;;;0.80;;
6043;SDS011;3050;42.660;23.276;2023-08-07T04:16:51;1.85;;;0.60;;
6043;SDS011;3050;42.660;23.276;2023-08-07T04:19:24;1.25;;;1.15;;
6043;SDS011;3050;42.660;23.276;2023-08-07T04:21:57;0.90;;;0.90;;
6043;SDS011;3050;42.660;23.276;2023-08-07T04:24:29;0.80;;;0.80;;
6043;SDS011;3050;42.660;23.276;2023-08-07T04:27:13;0.90;;;0.90;;
6043;SDS011;3050;42.660;23.276;2023-08-07T04:29:42;1.02;;;1.02;;
6043;SDS011;3050;42.660;23.276;2023-08-07T04:32:12;0.90;;;0.90;;
6043;SDS011;3050;42.660;23.276;2023-08-07T04:34:45;0.70;;;0.70;;
6043;SDS011;3050;42.660;23.276;2023-08-07T04:37:57;1.42;;;1.10;;
6043;SDS011;3050;42.660;23.276;2023-08-07T04:40:37;1.00;;;1.00;;
6043;SDS011;3050;42.660;23.276;2023-08-07T04:58:08;0.93;;;0.93;;
6043;SDS011;3050;42.660;23.276;2023-08-07T05:01:03;0.85;;;0.85;;
6043;SDS011;3050;42.660;23.276;2023-08-07T05:03:44;1.05;;;1.05;;
6043;SDS011;3050;42.660;23.276;2023-08-07T05:09:11;0.90;;;0.90;;
6043;SDS011;3050;42.660;23.276;2023-08-07T05:11:45;0.80;;;0.80;;
6043;SDS011;3050;42.660;23.276;2023-08-07T05:14:43;0.80;;;0.80;;
6043;SDS011;3050;42.660;23.276;2023-08-07T05:17:16;0.70;;;0.70;;
6043;SDS011;3050;42.660;23.276;2023-08-07T05:19:58;0.77;;;0.77;;
6043;SDS011;3050;42.660;23.276;2023-08-07T05:22:35;2.70;;;1.15;;
6043;SDS011;3050;42.660;23.276;2023-08-07T05:25:07;0.82;;;0.82;;
6043;SDS011;3050;42.660;23.276;2023-08-07T05:27:49;3.80;;;0.90;;
6043;SDS011;3050;42.660;23.276;2023-08-07T05:30:48;1.10;;;1.10;;
6043;SDS011;3050;42.660;23.276;2023-08-07T05:33:33;1.58;;;1.58;;
6043;SDS011;3050;42.660;23.276;2023-08-07T05:36:22;1.58;;;0.95;;
6043;SDS011;3050;42.660;23.276;2023-08-07T05:39:08;0.73;;;0.73;;
6043;SDS011;3050;42.660;23.276;2023-08-07T05:42:00;0.80;;;0.80;;
6043;SDS011;3050;42.660;23.276;2023-08-07T05:44:29;0.80;;;0.80;;
6043;SDS011;3050;42.660;23.276;2023-08-07T05:47:21;0.70;;;0.70;;
6043;SDS011;3050;42.660;23.276;2023-08-07T05:50:04;0.77;;;0.77;;
6043;SDS011;3050;42.660;23.276;2023-08-07T05:52:37;1.02;;;1.02;;
6043;SDS011;3050;42.660;23.276;2023-08-07T06:01:44;2.65;;;0.88;;
6043;SDS011;3050;42.660;23.276;2023-08-07T06:10:58;1.00;;;1.00;;
6043;SDS011;3050;42.660;23.276;2023-08-07T06:13:53;0.80;;;0.80;;
6043;SDS011;3050;42.660;23.276;2023-08-07T06:16:55;0.93;;;0.93;;
6043;SDS011;3050;42.660;23.276;2023-08-07T06:19:49;0.70;;;0.70;;
6043;SDS011;3050;42.660;23.276;2023-08-07T06:22:56;0.93;;;0.85;;
6043;SDS011;3050;42.660;23.276;2023-08-07T06:26:03;0.95;;;0.95;;
6043;SDS011;3050;42.660;23.276;2023-08-07T06:28:46;1.00;;;1.00;;
6043;SDS011;3050;42.660;23.276;2023-08-07T06:31:25;0.73;;;0.73;;
6043;SDS011;3050;42.660;23.276;2023-08-07T06:34:28;0.80;;;0.80;;
6043;SDS011;3050;42.660;23.276;2023-08-07T06:37:10;0.52;;;0.52;;
6043;SDS011;3050;42.660;23.276;2023-08-07T06:39:46;0.50;;;0.50;;
6043;SDS011;3050;42.660;23.276;2023-08-07T06:48:47;3.03;;;0.70;;
6043;SDS011;3050;42.660;23.276;2023-08-07T06:51:36;1.73;;;0.60;;
6043;SDS011;3050;42.660;23.276;2023-08-07T06:54:10;0.47;;;0.47;;
6043;SDS011;3050;42.660;23.276;2023-08-07T06:56:39;0.50;;;0.50;;
6043;SDS011;3050;42.660;23.276;2023-08-07T06:59:18;0.30;;;0.30;;
6043;SDS011;3050;42.660;23.276;2023-08-07T07:01:54;1.15;;;0.50;;
6043;SDS011;3050;42.660;23.276;2023-08-07T07:13:36;0.65;;;0.65;;
6043;SDS011;3050;42.660;23.276;2023-08-07T07:16:07;0.55;;;0.55;;
6043;SDS011;3050;42.660;23.276;2023-08-07T07:18:38;0.45;;;0.45;;
6043;SDS011;3050;42.660;23.276;2023-08-07T07:21:11;0.60;;;0.60;;
6043;SDS011;3050;42.660;23.276;2023-08-07T07:24:20;0.60;;;0.60;;
6043;SDS011;3050;42.660;23.276;2023-08-07T07:27:04;0.40;;;0.40;;
6043;SDS011;3050;42.660;23.276;2023-08-07T07:29:43;1.15;;;1.15;;
6043;SDS011;3050;42.660;23.276;2023-08-07T07:32:17;0.50;;;0.50;;
6043;SDS011;3050;42.660;23.276;2023-08-07T07:35:14;0.50;;;0.50;;
6043;SDS011;3050;42.660;23.276;2023-08-07T07:37:45;0.68;;;0.68;;
6043;SDS011;3050;42.660;23.276;2023-08-07T07:40:31;0.55;;;0.55;;
6043;SDS011;3050;42.660;23.276;2023-08-07T07:43:31;0.50;;;0.50;;
6043;SDS011;3050;42.660;23.276;2023-08-07T07:46:18;0.50;;;0.50;;
6043;SDS011;3050;42.660;23.276;2023-08-07T07:48:52;1.85;;;0.60;;
6043;SDS011;3050;42.660;23.276;2023-08-07T07:51:46;0.70;;;0.70;;
6043;SDS011;3050;42.660;23.276;2023-08-07T07:54:24;0.40;;;0.40;;
6043;SDS011;3050;42.660;23.276;2023-08-07T07:57:06;0.75;;;0.75;;
6043;SDS011;3050;42.660;23.276;2023-08-07T07:59:42;0.80;;;0.80;;
6043;SDS011;3050;42.660;23.276;2023-08-07T08:02:17;0.60;;;0.60;;
6043;SDS011;3050;42.660;23.276;2023-08-07T08:04:59;1.50;;;0.90;;
6043;SDS011;3050;42.660;23.276;2023-08-07T08:07:44;1.95;;;0.75;;
6043;SDS011;3050;42.660;23.276;2023-08-07T08:10:24;0.60;;;0.60;;
6043;SDS011;3050;42.660;23.276;2023-08-07T08:13:18;2.55;;;0.60;;
6043;SDS011;3050;42.660;23.276;2023-08-07T08:15:55;0.45;;;0.45;;
6043;SDS011;3050;42.660;23.276;2023-08-07T08:21:37;0.50;;;0.50;;
6043;SDS011;3050;42.660;23.276;2023-08-07T08:24:27;0.50;;;0.50;;
6043;SDS011;3050;42.660;23.276;2023-08-07T08:27:01;0.70;;;0.70;;
6043;SDS011;3050;42.660;23.276;2023-08-07T08:29:41;0.47;;;0.47;;
6043;SDS011;3050;42.660;23.276;2023-08-07T08:32:16;0.60;;;0.60;;
6043;SDS011;3050;42.660;23.276;2023-08-07T08:34:59;0.63;;;0.63;;
6043;SDS011;3050;42.660;23.276;2023-08-07T08:37:50;0.40;;;0.40;;
6043;SDS011;3050;42.660;23.276;2023-08-07T08:40:21;0.63;;;0.50;;
6043;SDS011;3050;42.660;23.276;2023-08-07T08:42:52;0.50;;;0.50;;
6043;SDS011;3050;42.660;23.276;2023-08-07T08:45:25;0.70;;;0.70;;
6043;SDS011;3050;42.660;23.276;2023-08-07T08:48:01;0.70;;;0.70;;
6043;SDS011;3050;42.660;23.276;2023-08-07T08:50:37;0.55;;;0.55;;
6043;SDS011;3050;42.660;23.276;2023-08-07T08:56:11;1.48;;;0.50;;
6043;SDS011;3050;42.660;23.276;2023-08-07T08:58:40;0.40;;;0.40;;
6043;SDS011;3050;42.660;23.276;2023-08-07T09:01:14;0.50;;;0.50;;
6043;SDS011;3050;42.660;23.276;2023-08-07T09:03:46;0.60;;;0.60;;
6043;SDS011;3050;42.660;23.276;2023-08-07T09:06:19;0.55;;;0.55;;
6043;SDS011;3050;42.660;23.276;2023-08-07T09:08:52;0.60;;;0.60;;
6043;SDS011;3050;42.660;23.276;2023-08-07T09:11:36;0.50;;;0.50;;
6043;SDS011;3050;42.660;23.276;2023-08-07T09:14:07;1.02;;;0.65;;
6043;SDS011;3050;42.660;23.276;2023-08-07T09:16:44;0.60;;;0.60;;
6043;SDS011;3050;42.660;23.276;2023-08-07T09:19:17;0.98;;;0.98;;
6043;SDS011;3050;42.660;23.276;2023-08-07T09:21:45;0.57;;;0.57;;
6043;SDS011;3050;42.660;23.276;2023-08-07T09:24:28;0.60;;;0.60;;
6043;SDS011;3050;42.660;23.276;2023-08-07T09:29:50;0.70;;;0.70;;
6043;SDS011;3050;42.660;23.276;2023-08-07T09:32:17;0.63;;;0.40;;
6043;SDS011;3050;42.660;23.276;2023-08-07T09:34:50;0.70;;;0.70;;
6043;SDS011;3050;42.660;23.276;2023-08-07T09:37:50;0.43;;;0.43;;
6043;SDS011;3050;42.660;23.276;2023-08-07T09:40:19;0.60;;;0.60;;
6043;SDS011;3050;42.660;23.276;2023-08-07T09:42:52;0.60;;;0.60;;
6043;SDS011;3050;42.660;23.276;2023-08-07T09:45:38;0.50;;;0.50;;
6043;SDS011;3050;42.660;23.276;2023-08-07T09:48:25;0.65;;;0.65;;
6043;SDS011;3050;42.660;23.276;2023-08-07T09:50:58;0.60;;;0.60;;
6043;SDS011;3050;42.660;23.276;2023-08-07T09:53:56;0.57;;;0.57;;
6043;SDS011;3050;42.660;23.276;2023-08-07T09:56:37;0.50;;;0.50;;
6043;SDS011;3050;42.660;23.276;2023-08-07T09:59:06;0.60;;;0.60;;
6043;SDS011;3050;42.660;23.276;2023-08-07T10:07:38;0.75;;;0.60;;
6043;SDS011;3050;42.660;23.276;2023-08-07T10:10:25;1.20;;;0.68;;
6043;SDS011;3050;42.660;23.276;2023-08-07T10:13:08;0.60;;;0.60;;
6043;SDS011;3050;42.660;23.276;2023-08-07T10:15:48;1.15;;;0.68;;
6043;SDS011;3050;42.660;23.276;2023-08-07T10:18:44;0.60;;;0.60;;
6043;SDS011;3050;42.660;23.276;2023-08-07T10:21:27;0.80;;;0.60;;
6043;SDS011;3050;42.660;23.276;2023-08-07T10:32:44;0.70;;;0.70;;
6043;SDS011;3050;42.660;23.276;2023-08-07T10:35:33;0.47;;;0.47;;
6043;SDS011;3050;42.660;23.276;2023-08-07T10:38:09;1.05;;;0.88;;
6043;SDS011;3050;42.660;23.276;2023-08-07T10:43:35;0.50;;;0.50;;
6043;SDS011;3050;42.660;23.276;2023-08-07T10:46:46;0.93;;;0.70;;
6043;SDS011;3050;42.660;23.276;2023-08-07T10:49:38;0.50;;;0.50;;
6043;SDS011;3050;42.660;23.276;2023-08-07T10:52:14;0.60;;;0.60;;
6043;SDS011;3050;42.660;23.276;2023-08-07T10:54:58;0.57;;;0.57;;
6043;SDS011;3050;42.660;23.276;2023-08-07T10:57:57;0.98;;;0.73;;
6043;SDS011;3050;42.660;23.276;2023-08-07T11:00:34;0.57;;;0.57;;
6043;SDS011;3050;42.660;23.276;2023-08-07T11:03:13;0.57;;;0.57;;
6043;SDS011;3050;42.660;23.276;2023-08-07T11:06:01;1.40;;;0.80;;
6043;SDS011;3050;42.660;23.276;2023-08-07T11:08:31;0.60;;;0.57;;
6043;SDS011;3050;42.660;23.276;2023-08-07T11:11:12;0.68;;;0.68;;
6043;SDS011;3050;42.660;23.276;2023-08-07T11:13:45;0.50;;;0.50;;
6043;SDS011;3050;42.660;23.276;2023-08-07T11:16:24;0.52;;;0.52;;
6043;SDS011;3050;42.660;23.276;2023-08-07T11:19:00;0.70;;;0.70;;
6043;SDS011;3050;42.660;23.276;2023-08-07T11:21:41;0.57;;;0.57;;
6043;SDS011;3050;42.660;23.276;2023-08-07T11:24:11;0.63;;;0.63;;
6043;SDS011;3050;42.660;23.276;2023-08-07T11:26:44;0.60;;;0.60;;
6043;SDS011;3050;42.660;23.276;2023-08-07T11:29:12;0.70;;;0.70;;
6043;SDS011;3050;42.660;23.276;2023-08-07T11:31:44;0.70;;;0.70;;
6043;SDS011;3050;42.660;23.276;2023-08-07T11:34:20;0.63;;;0.63;;
6043;SDS011;3050;42.660;23.276;2023-08-07T11:36:58;0.60;;;0.60;;
6043;SDS011;3050;42.660;23.276;2023-08-07T11:39:41;0.60;;;0.60;;
6043;SDS011;3050;42.660;23.276;2023-08-07T11:43:08;0.70;;;0.70;;
6043;SDS011;3050;42.660;23.276;2023-08-07T11:45:38;0.88;;;0.60;;
6043;SDS011;3050;42.660;23.276;2023-08-07T11:48:12;0.73;;;0.73;;
6043;SDS011;3050;42.660;23.276;2023-08-07T11:51:08;0.82;;;0.70;;
6043;SDS011;3050;42.660;23.276;2023-08-07T11:59:42;0.73;;;0.73;;
6043;SDS011;3050;42.660;23.276;2023-08-07T12:02:27;0.73;;;0.73;;
6043;SDS011;3050;42.660;23.276;2023-08-07T12:05:13;0.57;;;0.57;;
6043;SDS011;3050;42.660;23.276;2023-08-07T12:07:43;0.68;;;0.68;;
6043;SDS011;3050;42.660;23.276;2023-08-07T12:10:13;1.02;;;0.68;;
6043;SDS011;3050;42.660;23.276;2023-08-07T12:12:44;0.60;;;0.60;;
6043;SDS011;3050;42.660;23.276;2023-08-07T12:18:37;1.52;;;0.95;;
6043;SDS011;3050;42.660;23.276;2023-08-07T12:21:29;0.68;;;0.68;;
6043;SDS011;3050;42.660;23.276;2023-08-07T12:24:04;0.65;;;0.65;;
6043;SDS011;3050;42.660;23.276;2023-08-07T12:26:54;0.82;;;0.82;;
6043;SDS011;3050;42.660;23.276;2023-08-07T12:29:29;0.60;;;0.60;;
6043;SDS011;3050;42.660;23.276;2023-08-07T12:32:19;0.57;;;0.57;;
6043;SDS011;3050;42.660;23.276;2023-08-07T12:40:53;0.47;;;0.47;;
6043;SDS011;3050;42.660;23.276;2023-08-07T12:43:23;0.50;;;0.50;;
6043;SDS011;3050;42.660;23.276;2023-08-07T12:46:02;0.80;;;0.80;;
6043;SDS011;3050;42.660;23.276;2023-08-07T12:48:36;0.63;;;0.63;;
6043;SDS011;3050;42.660;23.276;2023-08-07T12:51:09;1.20;;;1.10;;
6043;SDS011;3050;42.660;23.276;2023-08-07T12:53:44;1.23;;;0.77;;
6043;SDS011;3050;42.660;23.276;2023-08-07T12:56:23;0.70;;;0.70;;
6043;SDS011;3050;42.660;23.276;2023-08-07T12:58:55;0.80;;;0.80;;
6043;SDS011;3050;42.660;23.276;2023-08-07T13:01:29;0.60;;;0.60;;
6043;SDS011;3050;42.660;23.276;2023-08-07T13:04:00;0.60;;;0.60;;
6043;SDS011;3050;42.660;23.276;2023-08-07T13:06:54;0.70;;;0.70;;
6043;SDS011;3050;42.660;23.276;2023-08-07T13:09:26;0.88;;;0.88;;
6043;SDS011;3050;42.660;23.276;2023-08-07T13:12:07;0.52;;;0.52;;
6043;SDS011;3050;42.660;23.276;2023-08-07T13:14:41;0.98;;;0.60;;
6043;SDS011;3050;42.660;23.276;2023-08-07T13:17:13;1.00;;;1.00;;
6043;SDS011;3050;42.660;23.276;2023-08-07T13:19:45;0.63;;;0.63;;
6043;SDS011;3050;42.660;23.276;2023-08-07T13:22:15;0.80;;;0.80;;
6043;SDS011;3050;42.660;23.276;2023-08-07T13:24:54;0.70;;;0.70;;
6043;SDS011;3050;42.660;23.276;2023-08-07T13:27:36;13.93;;;0.70;;
6043;SDS011;3050;42.660;23.276;2023-08-07T13:30:05;0.52;;;0.52;;
6043;SDS011;3050;42.660;23.276;2023-08-07T13:32:34;3.03;;;0.60;;
6043;SDS011;3050;42.660;23.276;2023-08-07T13:35:13;0.70;;;0.70;;
6043;SDS011;3050;42.660;23.276;2023-08-07T13:38:21;1.58;;;0.55;;
6043;SDS011;3050;42.660;23.276;2023-08-07T13:41:08;1.02;;;0.77;;
6043;SDS011;3050;42.660;23.276;2023-08-07T13:43:52;0.52;;;0.52;;
6043;SDS011;3050;42.660;23.276;2023-08-07T13:46:26;0.50;;;0.50;;
6043;SDS011;3050;42.660;23.276;2023-08-07T13:48:58;0.45;;;0.45;;
6043;SDS011;3050;42.660;23.276;2023-08-07T13:51:49;0.90;;;0.90;;
6043;SDS011;3050;42.660;23.276;2023-08-07T13:54:26;0.70;;;0.70;;
6043;SDS011;3050;42.660;23.276;2023-08-07T13:57:28;0.65;;;0.65;;
6043;SDS011;3050;42.660;23.276;2023-08-07T14:00:13;0.70;;;0.70;;
6043;SDS011;3050;42.660;23.276;2023-08-07T14:02:47;0.85;;;0.85;;
6043;SDS011;3050;42.660;23.276;2023-08-07T14:05:22;1.05;;;1.00;;
6043;SDS011;3050;42.660;23.276;2023-08-07T14:08:01;0.65;;;0.65;;
6043;SDS011;3050;42.660;23.276;2023-08-07T14:10:31;0.98;;;0.98;;
6043;SDS011;3050;42.660;23.276;2023-08-07T14:13:05;1.00;;;0.70;;
6043;SDS011;3050;42.660;23.276;2023-08-07T14:15:41;0.60;;;0.60;;
6043;SDS011;3050;42.660;23.276;2023-08-07T14:18:14;1.17;;;0.75;;
6043;SDS011;3050;42.660;23.276;2023-08-07T14:20:55;1.02;;;0.82;;
6043;SDS011;3050;42.660;23.276;2023-08-07T14:23:29;0.70;;;0.70;;
6043;SDS011;3050;42.660;23.276;2023-08-07T14:26:06;0.43;;;0.43;;
6043;SDS011;3050;42.660;23.276;2023-08-07T14:28:44;0.70;;;0.70;;
6043;SDS011;3050;42.660;23.276;2023-08-07T14:31:31;0.65;;;0.65;;
6043;SDS011;3050;42.660;23.276;2023-08-07T14:34:03;1.55;;;1.27;;
6043;SDS011;3050;42.660;23.276;2023-08-07T14:36:38;0.75;;;0.75;;
6043;SDS011;3050;42.660;23.276;2023-08-07T14:39:15;0.60;;;0.60;;
6043;SDS011;3050;42.660;23.276;2023-08-07T14:41:51;5.65;;;0.95;;
6043;SDS011;3050;42.660;23.276;2023-08-07T14:44:35;0.50;;;0.50;;
6043;SDS011;3050;42.660;23.276;2023-08-07T14:47:17;6.63;;;0.90;;
6043;SDS011;3050;42.660;23.276;2023-08-07T14:49:59;1.10;;;0.60;;
6043;SDS011;3050;42.660;23.276;2023-08-07T14:53:06;2.25;;;0.95;;
6043;SDS011;3050;42.660;23.276;2023-08-07T14:56:03;0.70;;;0.70;;
6043;SDS011;3050;42.660;23.276;2023-08-07T14:58:31;1.38;;;0.73;;
6043;SDS011;3050;42.660;23.276;2023-08-07T15:01:08;0.57;;;0.57;;
6043;SDS011;3050;42.660;23.276;2023-08-07T15:03:54;0.65;;;0.60;;
6043;SDS011;3050;42.660;23.276;2023-08-07T15:06:28;0.50;;;0.50;;
6043;SDS011;3050;42.660;23.276;2023-08-07T15:09:06;1.75;;;0.50;;
6043;SDS011;3050;42.660;23.276;2023-08-07T15:11:53;0.50;;;0.50;;
6043;SDS011;3050;42.660;23.276;2023-08-07T15:14:36;0.98;;;0.60;;
6043;SDS011;3050;42.660;23.276;2023-08-07T15:17:46;0.57;;;0.57;;
6043;SDS011;3050;42.660;23.276;2023-08-07T15:26:38;1.20;;;0.60;;
6043;SDS011;3050;42.660;23.276;2023-08-07T15:29:33;0.45;;;0.45;;
6043;SDS011;3050;42.660;23.276;2023-08-07T15:32:18;0.52;;;0.52;;
6043;SDS011;3050;42.660;23.276;2023-08-07T15:35:02;1.15;;;0.70;;
6043;SDS011;3050;42.660;23.276;2023-08-07T15:37:45;0.50;;;0.50;;
6043;SDS011;3050;42.660;23.276;2023-08-07T15:40:31;0.43;;;0.43;;
6043;SDS011;3050;42.660;23.276;2023-08-07T15:43:17;0.98;;;0.80;;
6043;SDS011;3050;42.660;23.276;2023-08-07T15:45:53;0.52;;;0.52;;
6043;SDS011;3050;42.660;23.276;2023-08-07T15:48:31;0.50;;;0.50;;
6043;SDS011;3050;42.660;23.276;2023-08-07T15:51:11;1.10;;;0.60;;
6043;SDS011;3050;42.660;23.276;2023-08-07T15:53:51;0.40;;;0.40;;
6043;SDS011;3050;42.660;23.276;2023-08-07T15:56:28;0.50;;;0.50;;
6043;SDS011;3050;42.660;23.276;2023-08-07T15:59:08;0.60;;;0.60;;
6043;SDS011;3050;42.660;23.276;2023-08-07T16:01:40;1.17;;;0.60;;
6043;SDS011;3050;42.660;23.276;2023-08-07T16:04:19;0.70;;;0.70;;
6043;SDS011;3050;42.660;23.276;2023-08-07T16:06:48;1.35;;;0.68;;
6043;SDS011;3050;42.660;23.276;2023-08-07T16:09:38;0.80;;;0.80;;
6043;SDS011;3050;42.660;23.276;2023-08-07T16:12:19;0.73;;;0.73;;
6043;SDS011;3050;42.660;23.276;2023-08-07T16:29:50;0.70;;;0.70;;
6043;SDS011;3050;42.660;23.276;2023-08-07T16:32:25;0.88;;;0.70;;
6043;SDS011;3050;42.660;23.276;2023-08-07T16:35:22;0.70;;;0.70;;
6043;SDS011;3050;42.660;23.276;2023-08-07T16:41:20;0.60;;;0.60;;
6043;SDS011;3050;42.660;23.276;2023-08-07T16:44:37;0.60;;;0.60;;
6043;SDS011;3050;42.660;23.276;2023-08-07T16:47:37;0.73;;;0.73;;
6043;SDS011;3050;42.660;23.276;2023-08-07T16:51:00;0.50;;;0.50;;
6043;SDS011;3050;42.660;23.276;2023-08-07T16:54:23;1.95;;;0.80;;
6043;SDS011;3050;42.660;23.276;2023-08-07T16:57:00;0.60;;;0.60;;
6043;SDS011;3050;42.660;23.276;2023-08-07T17:00:00;0.47;;;0.47;;
6043;SDS011;3050;42.660;23.276;2023-08-07T17:05:57;1.42;;;0.88;;
6043;SDS011;3050;42.660;23.276;2023-08-07T17:08:37;0.65;;;0.65;;
6043;SDS011;3050;42.660;23.276;2023-08-07T17:11:07;0.60;;;0.60;;
6043;SDS011;3050;42.660;23.276;2023-08-07T17:14:12;1.02;;;0.95;;
6043;SDS011;3050;42.660;23.276;2023-08-07T17:16:50;1.23;;;1.20;;
6043;SDS011;3050;42.660;23.276;2023-08-07T17:19:44;1.17;;;1.08;;
6043;SDS011;3050;42.660;23.276;2023-08-07T17:22:39;0.98;;;0.98;;
6043;SDS011;3050;42.660;23.276;2023-08-07T17:25:45;0.90;;;0.90;;
6043;SDS011;3050;42.660;23.276;2023-08-07T17:28:20;1.05;;;1.05;;
6043;SDS011;3050;42.660;23.276;2023-08-07T17:31:04;1.33;;;1.33;;
6043;SDS011;3050;42.660;23.276;2023-08-07T17:33:37;1.08;;;0.90;;
6043;SDS011;3050;42.660;23.276;2023-08-07T17:36:07;1.38;;;0.82;;
6043;SDS011;3050;42.660;23.276;2023-08-07T17:38:46;1.45;;;0.93;;
6043;SDS011;3050;42.660;23.276;2023-08-07T17:41:28;0.80;;;0.80;;
6043;SDS011;3050;42.660;23.276;2023-08-07T17:43:57;1.15;;;1.15;;
6043;SDS011;3050;42.660;23.276;2023-08-07T17:46:45;0.80;;;0.80;;
6043;SDS011;3050;42.660;23.276;2023-08-07T17:52:33;0.60;;;0.60;;
6043;SDS011;3050;42.660;23.276;2023-08-07T17:55:51;1.75;;;0.75;;
6043;SDS011;3050;42.660;23.276;2023-08-07T17:58:30;1.00;;;0.93;;
6043;SDS011;3050;42.660;23.276;2023-08-07T18:01:26;2.25;;;1.88;;
6043;SDS011;3050;42.660;23.276;2023-08-07T18:04:13;3.85;;;2.97;;
6043;SDS011;3050;42.660;23.276;2023-08-07T18:07:16;7.65;;;4.47;;
6043;SDS011;3050;42.660;23.276;2023-08-07T18:09:54;8.00;;;4.82;;
6043;SDS011;3050;42.660;23.276;2023-08-07T18:15:50;3.70;;;2.75;;
6043;SDS011;3050;42.660;23.276;2023-08-07T18:21:58;1.15;;;1.15;;